sensor_id;sensor_type;location;lat;lon;timestamp;P1;durP1;ratioP1;P2;durP2;ratioP2
10191;SDS011;17580;50.850;4.504;2023-07-31T00:00:43;8.37;;;3.43;;
10191;SDS011;17580;50.850;4.504;2023-07-31T00:03:11;11.57;;;5.30;;
10191;SDS011;17580;50.850;4.504;2023-07-31T00:05:38;11.67;;;4.70;;
10191;SDS011;17580;50.850;4.504;2023-07-31T00:08:06;9.07;;;4.10;;
10191;SDS011;17580;50.850;4.504;2023-07-31T00:10:33;8.20;;;4.07;;
10191;SDS011;17580;50.850;4.504;2023-07-31T00:13:00;11.37;;;4.90;;
10191;SDS011;17580;50.850;4.504;2023-07-31T00:15:29;14.03;;;5.13;;
10191;SDS011;17580;50.850;4.504;2023-07-31T00:17:56;7.10;;;4.10;;
10191;SDS011;17580;50.850;4.504;2023-07-31T00:20:24;9.43;;;4.33;;
10191;SDS011;17580;50.850;4.504;2023-07-31T00:22:51;6.77;;;4.60;;
10191;SDS011;17580;50.850;4.504;2023-07-31T00:25:18;9.83;;;4.77;;
10191;SDS011;17580;50.850;4.504;2023-07-31T00:27:46;11.60;;;4.07;;
10191;SDS011;17580;50.850;4.504;2023-07-31T00:30:13;10.07;;;4.30;;
10191;SDS011;17580;50.850;4.504;2023-07-31T00:32:42;8.67;;;4.30;;
10191;SDS011;17580;50.850;4.504;2023-07-31T00:35:10;9.63;;;4.97;;
10191;SDS011;17580;50.850;4.504;2023-07-31T00:37:37;8.37;;;4.93;;
10191;SDS011;17580;50.850;4.504;2023-07-31T00:40:05;8.40;;;4.17;;
10191;SDS011;17580;50.850;4.504;2023-07-31T00:42:32;8.50;;;4.67;;
10191;SDS011;17580;50.850;4.504;2023-07-31T00:44:59;7.53;;;3.97;;
10191;SDS011;17580;50.850;4.504;2023-07-31T00:47:27;11.47;;;4.57;;
10191;SDS011;17580;50.850;4.504;2023-07-31T00:49:56;11.07;;;4.87;;
10191;SDS011;17580;50.850;4.504;2023-07-31T00:52:23;9.90;;;4.73;;
10191;SDS011;17580;50.850;4.504;2023-07-31T00:54:50;8.00;;;4.20;;
10191;SDS011;17580;50.850;4.504;2023-07-31T00:57:17;9.57;;;4.63;;
10191;SDS011;17580;50.850;4.504;2023-07-31T00:59:45;8.73;;;3.83;;
10191;SDS011;17580;50.850;4.504;2023-07-31T01:02:12;10.90;;;5.17;;
10191;SDS011;17580;50.850;4.504;2023-07-31T01:04:41;7.97;;;3.87;;
10191;SDS011;17580;50.850;4.504;2023-07-31T01:07:11;6.77;;;4.10;;
10191;SDS011;17580;50.850;4.504;2023-07-31T01:09:43;7.73;;;4.30;;
10191;SDS011;17580;50.850;4.504;2023-07-31T01:12:13;7.80;;;3.97;;
10191;SDS011;17580;50.850;4.504;2023-07-31T01:14:42;5.77;;;3.23;;
10191;SDS011;17580;50.850;4.504;2023-07-31T01:17:17;10.87;;;4.50;;
10191;SDS011;17580;50.850;4.504;2023-07-31T01:19:44;12.83;;;4.43;;
10191;SDS011;17580;50.850;4.504;2023-07-31T01:22:23;9.47;;;4.93;;
10191;SDS011;17580;50.850;4.504;2023-07-31T01:24:55;9.33;;;3.83;;
10191;SDS011;17580;50.850;4.504;2023-07-31T01:27:28;9.30;;;4.80;;
10191;SDS011;17580;50.850;4.504;2023-07-31T01:29:59;7.10;;;4.13;;
10191;SDS011;17580;50.850;4.504;2023-07-31T01:32:27;7.37;;;4.37;;
10191;SDS011;17580;50.850;4.504;2023-07-31T01:34:55;7.33;;;3.73;;
10191;SDS011;17580;50.850;4.504;2023-07-31T01:37:27;9.17;;;4.93;;
10191;SDS011;17580;50.850;4.504;2023-07-31T01:39:55;7.93;;;4.30;;
10191;SDS011;17580;50.850;4.504;2023-07-31T01:42:22;8.97;;;4.33;;
10191;SDS011;17580;50.850;4.504;2023-07-31T01:44:51;6.93;;;4.10;;
10191;SDS011;17580;50.850;4.504;2023-07-31T01:47:18;9.33;;;4.83;;
10191;SDS011;17580;50.850;4.504;2023-07-31T01:49:45;9.90;;;4.40;;
10191;SDS011;17580;50.850;4.504;2023-07-31T01:52:13;7.43;;;4.37;;
10191;SDS011;17580;50.850;4.504;2023-07-31T01:54:40;8.13;;;4.50;;
10191;SDS011;17580;50.850;4.504;2023-07-31T01:57:07;8.07;;;4.47;;
10191;SDS011;17580;50.850;4.504;2023-07-31T01:59:35;12.53;;;4.30;;
10191;SDS011;17580;50.850;4.504;2023-07-31T02:02:03;11.47;;;4.60;;
10191;SDS011;17580;50.850;4.504;2023-07-31T02:04:31;6.80;;;3.97;;
10191;SDS011;17580;50.850;4.504;2023-07-31T02:06:59;7.20;;;4.33;;
10191;SDS011;17580;50.850;4.504;2023-07-31T02:09:26;7.13;;;4.47;;
10191;SDS011;17580;50.850;4.504;2023-07-31T02:11:53;8.97;;;4.27;;
10191;SDS011;17580;50.850;4.504;2023-07-31T02:14:21;6.63;;;3.83;;
10191;SDS011;17580;50.850;4.504;2023-07-31T02:16:48;9.03;;;4.27;;
10191;SDS011;17580;50.850;4.504;2023-07-31T02:19:17;9.63;;;5.07;;
10191;SDS011;17580;50.850;4.504;2023-07-31T02:21:44;10.57;;;5.30;;
10191;SDS011;17580;50.850;4.504;2023-07-31T02:24:11;7.70;;;4.67;;
10191;SDS011;17580;50.850;4.504;2023-07-31T02:26:39;7.23;;;3.93;;
10191;SDS011;17580;50.850;4.504;2023-07-31T02:29:07;6.30;;;4.37;;
10191;SDS011;17580;50.850;4.504;2023-07-31T02:31:34;4.43;;;3.67;;
10191;SDS011;17580;50.850;4.504;2023-07-31T02:34:01;6.30;;;4.10;;
10191;SDS011;17580;50.850;4.504;2023-07-31T02:36:30;4.43;;;3.60;;
10191;SDS011;17580;50.850;4.504;2023-07-31T02:38:57;7.80;;;4.73;;
10191;SDS011;17580;50.850;4.504;2023-07-31T02:41:25;7.83;;;4.50;;
10191;SDS011;17580;50.850;4.504;2023-07-31T02:43:52;4.20;;;3.80;;
10191;SDS011;17580;50.850;4.504;2023-07-31T02:46:19;7.00;;;4.10;;
10191;SDS011;17580;50.850;4.504;2023-07-31T02:48:49;7.87;;;4.33;;
10191;SDS011;17580;50.850;4.504;2023-07-31T02:51:17;7.83;;;4.30;;
10191;SDS011;17580;50.850;4.504;2023-07-31T02:53:47;3.53;;;3.23;;
10191;SDS011;17580;50.850;4.504;2023-07-31T02:56:15;5.10;;;3.80;;
10191;SDS011;17580;50.850;4.504;2023-07-31T02:58:42;6.03;;;4.10;;
10191;SDS011;17580;50.850;4.504;2023-07-31T03:01:10;5.47;;;3.60;;
10191;SDS011;17580;50.850;4.504;2023-07-31T03:03:37;6.40;;;3.87;;
10191;SDS011;17580;50.850;4.504;2023-07-31T03:06:04;4.70;;;3.63;;
10191;SDS011;17580;50.850;4.504;2023-07-31T03:08:32;3.63;;;3.30;;
10191;SDS011;17580;50.850;4.504;2023-07-31T03:11:00;8.40;;;4.10;;
10191;SDS011;17580;50.850;4.504;2023-07-31T03:13:28;5.57;;;3.47;;
10191;SDS011;17580;50.850;4.504;2023-07-31T03:15:55;5.13;;;3.33;;
10191;SDS011;17580;50.850;4.504;2023-07-31T03:18:22;4.97;;;3.43;;
10191;SDS011;17580;50.850;4.504;2023-07-31T03:20:49;5.77;;;3.93;;
10191;SDS011;17580;50.850;4.504;2023-07-31T03:23:17;10.77;;;3.30;;
10191;SDS011;17580;50.850;4.504;2023-07-31T03:25:55;6.00;;;4.20;;
10191;SDS011;17580;50.850;4.504;2023-07-31T03:28:24;5.50;;;3.73;;
10191;SDS011;17580;50.850;4.504;2023-07-31T03:30:51;6.43;;;3.20;;
10191;SDS011;17580;50.850;4.504;2023-07-31T03:33:18;5.33;;;3.53;;
10191;SDS011;17580;50.850;4.504;2023-07-31T03:35:45;4.60;;;3.37;;
10191;SDS011;17580;50.850;4.504;2023-07-31T03:38:13;4.93;;;4.20;;
10191;SDS011;17580;50.850;4.504;2023-07-31T03:40:40;6.37;;;3.40;;
10191;SDS011;17580;50.850;4.504;2023-07-31T03:43:07;5.17;;;3.77;;
10191;SDS011;17580;50.850;4.504;2023-07-31T03:45:36;10.47;;;4.80;;
10191;SDS011;17580;50.850;4.504;2023-07-31T03:48:03;6.73;;;4.23;;
10191;SDS011;17580;50.850;4.504;2023-07-31T03:50:31;4.07;;;3.63;;
10191;SDS011;17580;50.850;4.504;2023-07-31T03:52:58;3.53;;;3.23;;
10191;SDS011;17580;50.850;4.504;2023-07-31T03:55:25;5.87;;;3.90;;
10191;SDS011;17580;50.850;4.504;2023-07-31T03:57:53;4.93;;;4.07;;
10191;SDS011;17580;50.850;4.504;2023-07-31T04:00:20;4.50;;;3.40;;
10191;SDS011;17580;50.850;4.504;2023-07-31T04:02:49;3.50;;;3.20;;
10191;SDS011;17580;50.850;4.504;2023-07-31T04:05:16;9.33;;;4.30;;
10191;SDS011;17580;50.850;4.504;2023-07-31T04:07:43;5.97;;;3.70;;
10191;SDS011;17580;50.850;4.504;2023-07-31T04:10:11;5.53;;;4.17;;
10191;SDS011;17580;50.850;4.504;2023-07-31T04:12:38;4.73;;;3.50;;
10191;SDS011;17580;50.850;4.504;2023-07-31T04:15:06;3.70;;;3.40;;
10191;SDS011;17580;50.850;4.504;2023-07-31T04:17:33;7.03;;;4.07;;
10191;SDS011;17580;50.850;4.504;2023-07-31T04:20:02;7.83;;;3.90;;
10191;SDS011;17580;50.850;4.504;2023-07-31T04:22:29;3.67;;;3.33;;
10191;SDS011;17580;50.850;4.504;2023-07-31T04:24:56;4.70;;;3.80;;
10191;SDS011;17580;50.850;4.504;2023-07-31T04:27:24;5.83;;;3.50;;
10191;SDS011;17580;50.850;4.504;2023-07-31T04:29:51;5.00;;;3.50;;
10191;SDS011;17580;50.850;4.504;2023-07-31T04:32:19;5.00;;;3.93;;
10191;SDS011;17580;50.850;4.504;2023-07-31T04:34:46;6.93;;;3.57;;
10191;SDS011;17580;50.850;4.504;2023-07-31T04:37:15;4.97;;;4.47;;
10191;SDS011;17580;50.850;4.504;2023-07-31T04:39:42;4.57;;;4.07;;
10191;SDS011;17580;50.850;4.504;2023-07-31T04:42:09;4.63;;;3.50;;
10191;SDS011;17580;50.850;4.504;2023-07-31T04:44:37;3.80;;;3.40;;
10191;SDS011;17580;50.850;4.504;2023-07-31T04:47:04;6.90;;;3.90;;
10191;SDS011;17580;50.850;4.504;2023-07-31T04:49:31;4.10;;;3.27;;
10191;SDS011;17580;50.850;4.504;2023-07-31T04:51:59;4.67;;;3.30;;
10191;SDS011;17580;50.850;4.504;2023-07-31T04:54:27;5.60;;;3.50;;
10191;SDS011;17580;50.850;4.504;2023-07-31T04:56:55;3.90;;;3.57;;
10191;SDS011;17580;50.850;4.504;2023-07-31T04:59:22;8.87;;;4.50;;
10191;SDS011;17580;50.850;4.504;2023-07-31T05:01:49;5.90;;;3.67;;
10191;SDS011;17580;50.850;4.504;2023-07-31T05:04:16;5.43;;;3.30;;
10191;SDS011;17580;50.850;4.504;2023-07-31T05:06:44;3.67;;;3.37;;
10191;SDS011;17580;50.850;4.504;2023-07-31T05:09:11;5.43;;;3.95;;
10191;SDS011;17580;50.850;4.504;2023-07-31T05:11:40;3.60;;;3.23;;
10191;SDS011;17580;50.850;4.504;2023-07-31T05:14:08;5.03;;;3.87;;
10191;SDS011;17580;50.850;4.504;2023-07-31T05:16:35;8.37;;;4.43;;
10191;SDS011;17580;50.850;4.504;2023-07-31T05:19:02;6.63;;;3.87;;
10191;SDS011;17580;50.850;4.504;2023-07-31T05:21:30;4.07;;;3.67;;
10191;SDS011;17580;50.850;4.504;2023-07-31T05:23:57;4.50;;;3.57;;
10191;SDS011;17580;50.850;4.504;2023-07-31T05:26:24;6.57;;;4.27;;
10191;SDS011;17580;50.850;4.504;2023-07-31T05:28:53;6.90;;;4.33;;
10191;SDS011;17580;50.850;4.504;2023-07-31T05:31:20;4.30;;;3.40;;
10191;SDS011;17580;50.850;4.504;2023-07-31T05:33:49;6.00;;;3.37;;
10191;SDS011;17580;50.850;4.504;2023-07-31T05:36:17;5.07;;;3.20;;
10191;SDS011;17580;50.850;4.504;2023-07-31T05:38:44;4.67;;;3.03;;
10191;SDS011;17580;50.850;4.504;2023-07-31T05:41:11;5.20;;;3.13;;
10191;SDS011;17580;50.850;4.504;2023-07-31T05:43:39;4.90;;;3.63;;
10191;SDS011;17580;50.850;4.504;2023-07-31T05:46:07;5.97;;;3.63;;
10191;SDS011;17580;50.850;4.504;2023-07-31T05:48:36;4.10;;;3.10;;
10191;SDS011;17580;50.850;4.504;2023-07-31T05:51:04;6.80;;;4.10;;
10191;SDS011;17580;50.850;4.504;2023-07-31T05:53:32;4.60;;;3.17;;
10191;SDS011;17580;50.850;4.504;2023-07-31T05:56:01;5.40;;;2.87;;
10191;SDS011;17580;50.850;4.504;2023-07-31T05:58:28;5.73;;;3.47;;
10191;SDS011;17580;50.850;4.504;2023-07-31T06:00:55;7.67;;;3.50;;
10191;SDS011;17580;50.850;4.504;2023-07-31T06:03:24;4.17;;;3.80;;
10191;SDS011;17580;50.850;4.504;2023-07-31T06:05:51;3.90;;;3.50;;
10191;SDS011;17580;50.850;4.504;2023-07-31T06:08:18;6.40;;;4.00;;
10191;SDS011;17580;50.850;4.504;2023-07-31T06:10:45;5.97;;;3.87;;
10191;SDS011;17580;50.850;4.504;2023-07-31T06:13:12;6.53;;;3.93;;
10191;SDS011;17580;50.850;4.504;2023-07-31T06:15:39;10.83;;;3.73;;
10191;SDS011;17580;50.850;4.504;2023-07-31T06:18:07;4.03;;;3.43;;
10191;SDS011;17580;50.850;4.504;2023-07-31T06:20:36;4.07;;;2.90;;
10191;SDS011;17580;50.850;4.504;2023-07-31T06:23:05;3.30;;;3.00;;
10191;SDS011;17580;50.850;4.504;2023-07-31T06:25:33;7.73;;;3.60;;
10191;SDS011;17580;50.850;4.504;2023-07-31T06:28:00;9.73;;;3.33;;
10191;SDS011;17580;50.850;4.504;2023-07-31T06:30:27;7.60;;;3.60;;
10191;SDS011;17580;50.850;4.504;2023-07-31T06:32:55;4.70;;;3.90;;
10191;SDS011;17580;50.850;4.504;2023-07-31T06:35:22;5.03;;;3.33;;
10191;SDS011;17580;50.850;4.504;2023-07-31T06:37:51;5.43;;;3.33;;
10191;SDS011;17580;50.850;4.504;2023-07-31T06:40:18;4.23;;;3.30;;
10191;SDS011;17580;50.850;4.504;2023-07-31T06:42:45;5.27;;;3.93;;
10191;SDS011;17580;50.850;4.504;2023-07-31T06:45:12;4.17;;;3.50;;
10191;SDS011;17580;50.850;4.504;2023-07-31T06:47:40;4.90;;;3.63;;
10191;SDS011;17580;50.850;4.504;2023-07-31T06:50:07;8.90;;;3.90;;
10191;SDS011;17580;50.850;4.504;2023-07-31T06:52:35;3.70;;;3.00;;
10191;SDS011;17580;50.850;4.504;2023-07-31T06:55:09;3.97;;;3.43;;
10191;SDS011;17580;50.850;4.504;2023-07-31T06:57:42;4.97;;;3.43;;
10191;SDS011;17580;50.850;4.504;2023-07-31T07:00:10;5.33;;;3.47;;
10191;SDS011;17580;50.850;4.504;2023-07-31T07:02:38;5.10;;;3.80;;
10191;SDS011;17580;50.850;4.504;2023-07-31T07:05:06;5.33;;;3.70;;
10191;SDS011;17580;50.850;4.504;2023-07-31T07:07:33;3.30;;;3.00;;
10191;SDS011;17580;50.850;4.504;2023-07-31T07:10:00;5.40;;;3.00;;
10191;SDS011;17580;50.850;4.504;2023-07-31T07:12:30;6.47;;;3.20;;
10191;SDS011;17580;50.850;4.504;2023-07-31T07:14:57;4.50;;;2.93;;
10191;SDS011;17580;50.850;4.504;2023-07-31T07:17:25;5.47;;;4.17;;
10191;SDS011;17580;50.850;4.504;2023-07-31T07:19:52;4.67;;;3.80;;
10191;SDS011;17580;50.850;4.504;2023-07-31T07:22:21;3.83;;;2.90;;
10191;SDS011;17580;50.850;4.504;2023-07-31T07:24:48;3.37;;;3.07;;
10191;SDS011;17580;50.850;4.504;2023-07-31T07:27:15;5.13;;;3.77;;
10191;SDS011;17580;50.850;4.504;2023-07-31T07:29:45;3.90;;;2.73;;
10191;SDS011;17580;50.850;4.504;2023-07-31T07:32:12;3.43;;;2.90;;
10191;SDS011;17580;50.850;4.504;2023-07-31T07:34:39;5.50;;;3.23;;
10191;SDS011;17580;50.850;4.504;2023-07-31T07:37:07;3.50;;;3.20;;
10191;SDS011;17580;50.850;4.504;2023-07-31T07:39:34;5.37;;;3.53;;
10191;SDS011;17580;50.850;4.504;2023-07-31T07:42:01;5.43;;;3.00;;
10191;SDS011;17580;50.850;4.504;2023-07-31T07:44:29;3.60;;;3.03;;
10191;SDS011;17580;50.850;4.504;2023-07-31T07:46:58;4.27;;;3.37;;
10191;SDS011;17580;50.850;4.504;2023-07-31T07:49:25;6.53;;;2.93;;
10191;SDS011;17580;50.850;4.504;2023-07-31T07:51:52;3.97;;;2.50;;
10191;SDS011;17580;50.850;4.504;2023-07-31T07:54:19;3.60;;;2.67;;
10191;SDS011;17580;50.850;4.504;2023-07-31T07:56:47;2.93;;;2.40;;
10191;SDS011;17580;50.850;4.504;2023-07-31T07:59:14;3.70;;;2.70;;
10191;SDS011;17580;50.850;4.504;2023-07-31T08:01:42;3.77;;;2.70;;
10191;SDS011;17580;50.850;4.504;2023-07-31T08:04:10;3.33;;;2.60;;
10191;SDS011;17580;50.850;4.504;2023-07-31T08:06:38;3.17;;;2.80;;
10191;SDS011;17580;50.850;4.504;2023-07-31T08:09:05;3.87;;;2.60;;
10191;SDS011;17580;50.850;4.504;2023-07-31T08:11:34;3.73;;;3.30;;
10191;SDS011;17580;50.850;4.504;2023-07-31T08:14:01;4.50;;;2.93;;
10191;SDS011;17580;50.850;4.504;2023-07-31T08:16:28;4.03;;;3.00;;
10191;SDS011;17580;50.850;4.504;2023-07-31T08:18:56;3.53;;;3.20;;
10191;SDS011;17580;50.850;4.504;2023-07-31T08:21:24;6.43;;;3.03;;
10191;SDS011;17580;50.850;4.504;2023-07-31T08:23:52;4.77;;;3.53;;
10191;SDS011;17580;50.850;4.504;2023-07-31T08:26:19;4.57;;;3.00;;
10191;SDS011;17580;50.850;4.504;2023-07-31T08:28:47;4.23;;;3.00;;
10191;SDS011;17580;50.850;4.504;2023-07-31T08:31:14;3.27;;;2.90;;
10191;SDS011;17580;50.850;4.504;2023-07-31T08:33:41;3.80;;;2.80;;
10191;SDS011;17580;50.850;4.504;2023-07-31T08:36:09;2.77;;;2.40;;
10191;SDS011;17580;50.850;4.504;2023-07-31T08:38:37;3.30;;;3.10;;
10191;SDS011;17580;50.850;4.504;2023-07-31T08:41:05;3.80;;;3.10;;
10191;SDS011;17580;50.850;4.504;2023-07-31T08:43:32;3.53;;;2.70;;
10191;SDS011;17580;50.850;4.504;2023-07-31T08:45:59;3.93;;;2.60;;
10191;SDS011;17580;50.850;4.504;2023-07-31T08:48:27;3.03;;;2.70;;
10191;SDS011;17580;50.850;4.504;2023-07-31T08:50:55;3.27;;;2.67;;
10191;SDS011;17580;50.850;4.504;2023-07-31T08:53:22;2.77;;;2.57;;
10191;SDS011;17580;50.850;4.504;2023-07-31T08:55:51;2.80;;;2.60;;
10191;SDS011;17580;50.850;4.504;2023-07-31T08:58:19;2.70;;;2.50;;
10191;SDS011;17580;50.850;4.504;2023-07-31T09:00:47;2.60;;;2.40;;
10191;SDS011;17580;50.850;4.504;2023-07-31T09:03:15;3.33;;;3.03;;
10191;SDS011;17580;50.850;4.504;2023-07-31T09:05:43;3.80;;;3.27;;
10191;SDS011;17580;50.850;4.504;2023-07-31T09:08:11;4.90;;;3.10;;
10191;SDS011;17580;50.850;4.504;2023-07-31T09:10:42;3.23;;;2.80;;
10191;SDS011;17580;50.850;4.504;2023-07-31T09:13:12;4.30;;;3.20;;
10191;SDS011;17580;50.850;4.504;2023-07-31T09:15:40;3.50;;;2.50;;
10191;SDS011;17580;50.850;4.504;2023-07-31T09:18:07;4.27;;;2.93;;
10191;SDS011;17580;50.850;4.504;2023-07-31T09:20:35;3.17;;;2.90;;
10191;SDS011;17580;50.850;4.504;2023-07-31T09:23:06;7.43;;;3.87;;
10191;SDS011;17580;50.850;4.504;2023-07-31T09:25:34;4.17;;;2.80;;
10191;SDS011;17580;50.850;4.504;2023-07-31T09:28:02;2.77;;;2.50;;
10191;SDS011;17580;50.850;4.504;2023-07-31T09:30:36;2.93;;;2.57;;
10191;SDS011;17580;50.850;4.504;2023-07-31T09:33:10;4.83;;;2.93;;
10191;SDS011;17580;50.850;4.504;2023-07-31T09:35:38;7.10;;;3.57;;
10191;SDS011;17580;50.850;4.504;2023-07-31T09:38:07;7.70;;;2.93;;
10191;SDS011;17580;50.850;4.504;2023-07-31T09:40:35;6.83;;;3.53;;
10191;SDS011;17580;50.850;4.504;2023-07-31T09:43:04;6.23;;;3.60;;
10191;SDS011;17580;50.850;4.504;2023-07-31T09:45:35;4.13;;;2.93;;
10191;SDS011;17580;50.850;4.504;2023-07-31T09:48:03;5.20;;;2.83;;
10191;SDS011;17580;50.850;4.504;2023-07-31T09:50:30;4.07;;;2.90;;
10191;SDS011;17580;50.850;4.504;2023-07-31T09:52:57;4.37;;;2.67;;
10191;SDS011;17580;50.850;4.504;2023-07-31T09:55:25;4.77;;;3.33;;
10191;SDS011;17580;50.850;4.504;2023-07-31T09:57:52;3.93;;;2.80;;
10191;SDS011;17580;50.850;4.504;2023-07-31T10:00:21;4.57;;;3.60;;
10191;SDS011;17580;50.850;4.504;2023-07-31T10:02:51;6.73;;;3.93;;
10191;SDS011;17580;50.850;4.504;2023-07-31T10:05:19;5.47;;;3.57;;
10191;SDS011;17580;50.850;4.504;2023-07-31T10:07:49;3.33;;;3.03;;
10191;SDS011;17580;50.850;4.504;2023-07-31T10:10:18;4.23;;;3.30;;
10191;SDS011;17580;50.850;4.504;2023-07-31T10:12:47;4.70;;;3.60;;
10191;SDS011;17580;50.850;4.504;2023-07-31T10:15:15;3.63;;;3.33;;
10191;SDS011;17580;50.850;4.504;2023-07-31T10:17:43;3.73;;;3.00;;
10191;SDS011;17580;50.850;4.504;2023-07-31T10:20:12;5.00;;;3.37;;
10191;SDS011;17580;50.850;4.504;2023-07-31T10:22:41;4.17;;;3.40;;
10191;SDS011;17580;50.850;4.504;2023-07-31T10:25:09;4.57;;;3.80;;
10191;SDS011;17580;50.850;4.504;2023-07-31T10:27:36;7.07;;;4.13;;
10191;SDS011;17580;50.850;4.504;2023-07-31T10:30:05;4.47;;;3.80;;
10191;SDS011;17580;50.850;4.504;2023-07-31T10:32:33;8.27;;;4.67;;
10191;SDS011;17580;50.850;4.504;2023-07-31T10:35:01;4.87;;;3.67;;
10191;SDS011;17580;50.850;4.504;2023-07-31T10:37:35;5.90;;;3.83;;
10191;SDS011;17580;50.850;4.504;2023-07-31T10:40:04;5.20;;;3.67;;
10191;SDS011;17580;50.850;4.504;2023-07-31T10:42:31;6.50;;;3.93;;
10191;SDS011;17580;50.850;4.504;2023-07-31T10:45:00;5.20;;;3.53;;
10191;SDS011;17580;50.850;4.504;2023-07-31T10:47:27;6.53;;;3.87;;
10191;SDS011;17580;50.850;4.504;2023-07-31T10:52:38;7.80;;;4.70;;
10191;SDS011;17580;50.850;4.504;2023-07-31T10:55:15;6.50;;;4.73;;
10191;SDS011;17580;50.850;4.504;2023-07-31T10:57:44;6.43;;;4.17;;
10191;SDS011;17580;50.850;4.504;2023-07-31T11:00:19;5.03;;;3.50;;
10191;SDS011;17580;50.850;4.504;2023-07-31T11:02:55;6.03;;;4.23;;
10191;SDS011;17580;50.850;4.504;2023-07-31T11:08:11;5.40;;;3.67;;
10191;SDS011;17580;50.850;4.504;2023-07-31T11:10:38;4.83;;;3.10;;
10191;SDS011;17580;50.850;4.504;2023-07-31T11:13:05;5.27;;;4.03;;
10191;SDS011;17580;50.850;4.504;2023-07-31T11:15:33;6.73;;;4.23;;
10191;SDS011;17580;50.850;4.504;2023-07-31T11:18:00;4.80;;;3.90;;
10191;SDS011;17580;50.850;4.504;2023-07-31T11:20:30;5.97;;;3.60;;
10191;SDS011;17580;50.850;4.504;2023-07-31T11:22:58;7.03;;;4.17;;
10191;SDS011;17580;50.850;4.504;2023-07-31T11:25:28;5.63;;;3.73;;
10191;SDS011;17580;50.850;4.504;2023-07-31T11:27:55;5.37;;;3.63;;
10191;SDS011;17580;50.850;4.504;2023-07-31T11:30:22;5.60;;;4.17;;
10191;SDS011;17580;50.850;4.504;2023-07-31T11:32:50;4.57;;;3.77;;
10191;SDS011;17580;50.850;4.504;2023-07-31T11:35:17;5.97;;;4.30;;
10191;SDS011;17580;50.850;4.504;2023-07-31T11:37:45;4.83;;;3.67;;
10191;SDS011;17580;50.850;4.504;2023-07-31T11:40:12;4.00;;;3.60;;
10191;SDS011;17580;50.850;4.504;2023-07-31T11:42:41;8.90;;;4.27;;
10191;SDS011;17580;50.850;4.504;2023-07-31T11:45:08;5.80;;;3.77;;
10191;SDS011;17580;50.850;4.504;2023-07-31T11:47:37;6.87;;;4.23;;
10191;SDS011;17580;50.850;4.504;2023-07-31T11:50:05;4.70;;;4.20;;
10191;SDS011;17580;50.850;4.504;2023-07-31T11:52:33;7.90;;;4.50;;
10191;SDS011;17580;50.850;4.504;2023-07-31T11:55:01;6.67;;;4.37;;
10191;SDS011;17580;50.850;4.504;2023-07-31T11:57:29;7.77;;;4.10;;
10191;SDS011;17580;50.850;4.504;2023-07-31T11:59:58;6.13;;;3.57;;
10191;SDS011;17580;50.850;4.504;2023-07-31T12:02:25;4.87;;;4.43;;
10191;SDS011;17580;50.850;4.504;2023-07-31T12:04:53;5.47;;;3.80;;
10191;SDS011;17580;50.850;4.504;2023-07-31T12:07:20;6.83;;;3.77;;
10191;SDS011;17580;50.850;4.504;2023-07-31T12:09:51;5.20;;;3.67;;
10191;SDS011;17580;50.850;4.504;2023-07-31T12:12:22;7.63;;;4.23;;
10191;SDS011;17580;50.850;4.504;2023-07-31T12:14:49;8.93;;;4.30;;
10191;SDS011;17580;50.850;4.504;2023-07-31T12:17:18;4.80;;;3.57;;
10191;SDS011;17580;50.850;4.504;2023-07-31T12:19:48;3.50;;;3.20;;
10191;SDS011;17580;50.850;4.504;2023-07-31T12:22:15;7.37;;;4.50;;
10191;SDS011;17580;50.850;4.504;2023-07-31T12:24:43;5.73;;;4.20;;
10191;SDS011;17580;50.850;4.504;2023-07-31T12:27:11;7.80;;;4.17;;
10191;SDS011;17580;50.850;4.504;2023-07-31T12:29:38;7.07;;;3.80;;
10191;SDS011;17580;50.850;4.504;2023-07-31T12:32:20;4.77;;;3.63;;
10191;SDS011;17580;50.850;4.504;2023-07-31T12:34:47;4.30;;;3.90;;
10191;SDS011;17580;50.850;4.504;2023-07-31T12:37:14;3.60;;;3.20;;
10191;SDS011;17580;50.850;4.504;2023-07-31T12:39:42;4.23;;;3.33;;
10191;SDS011;17580;50.850;4.504;2023-07-31T12:42:09;6.97;;;4.00;;
10191;SDS011;17580;50.850;4.504;2023-07-31T12:44:37;7.67;;;4.50;;
10191;SDS011;17580;50.850;4.504;2023-07-31T12:47:04;4.30;;;3.37;;
10191;SDS011;17580;50.850;4.504;2023-07-31T12:49:33;6.33;;;4.07;;
10191;SDS011;17580;50.850;4.504;2023-07-31T12:52:00;7.53;;;4.30;;
10191;SDS011;17580;50.850;4.504;2023-07-31T12:54:28;5.73;;;4.57;;
10191;SDS011;17580;50.850;4.504;2023-07-31T12:56:55;4.70;;;3.67;;
10191;SDS011;17580;50.850;4.504;2023-07-31T12:59:22;7.53;;;5.07;;
10191;SDS011;17580;50.850;4.504;2023-07-31T13:01:49;9.83;;;4.67;;
10191;SDS011;17580;50.850;4.504;2023-07-31T13:04:17;8.07;;;3.80;;
10191;SDS011;17580;50.850;4.504;2023-07-31T13:06:45;4.93;;;3.53;;
10191;SDS011;17580;50.850;4.504;2023-07-31T13:09:13;4.23;;;3.57;;
10191;SDS011;17580;50.850;4.504;2023-07-31T13:11:42;5.37;;;3.70;;
10191;SDS011;17580;50.850;4.504;2023-07-31T13:14:09;5.43;;;4.10;;
10191;SDS011;17580;50.850;4.504;2023-07-31T13:16:37;7.53;;;3.87;;
10191;SDS011;17580;50.850;4.504;2023-07-31T13:19:04;6.93;;;3.77;;
10191;SDS011;17580;50.850;4.504;2023-07-31T13:21:34;3.87;;;3.33;;
10191;SDS011;17580;50.850;4.504;2023-07-31T13:24:03;3.40;;;3.10;;
10191;SDS011;17580;50.850;4.504;2023-07-31T13:26:31;8.63;;;3.43;;
10191;SDS011;17580;50.850;4.504;2023-07-31T13:28:59;3.90;;;3.43;;
10191;SDS011;17580;50.850;4.504;2023-07-31T13:31:26;3.60;;;3.30;;
10191;SDS011;17580;50.850;4.504;2023-07-31T13:33:53;4.30;;;3.10;;
10191;SDS011;17580;50.850;4.504;2023-07-31T13:36:21;3.57;;;3.27;;
10191;SDS011;17580;50.850;4.504;2023-07-31T13:38:48;3.80;;;2.97;;
10191;SDS011;17580;50.850;4.504;2023-07-31T13:41:17;3.13;;;2.90;;
10191;SDS011;17580;50.850;4.504;2023-07-31T13:43:44;4.53;;;2.80;;
10191;SDS011;17580;50.850;4.504;2023-07-31T13:46:11;3.37;;;3.07;;
10191;SDS011;17580;50.850;4.504;2023-07-31T13:48:39;3.07;;;2.50;;
10191;SDS011;17580;50.850;4.504;2023-07-31T13:51:06;4.77;;;2.90;;
10191;SDS011;17580;50.850;4.504;2023-07-31T13:53:33;3.00;;;2.67;;
10191;SDS011;17580;50.850;4.504;2023-07-31T13:56:00;3.17;;;2.60;;
10191;SDS011;17580;50.850;4.504;2023-07-31T13:58:29;2.70;;;2.50;;
10191;SDS011;17580;50.850;4.504;2023-07-31T14:00:56;4.17;;;2.97;;
10191;SDS011;17580;50.850;4.504;2023-07-31T14:03:24;2.50;;;2.30;;
10191;SDS011;17580;50.850;4.504;2023-07-31T14:05:51;3.40;;;3.10;;
10191;SDS011;17580;50.850;4.504;2023-07-31T14:08:20;4.17;;;2.87;;
10191;SDS011;17580;50.850;4.504;2023-07-31T14:10:47;2.77;;;2.50;;
10191;SDS011;17580;50.850;4.504;2023-07-31T14:13:15;4.50;;;2.87;;
10191;SDS011;17580;50.850;4.504;2023-07-31T14:15:43;2.73;;;2.53;;
10191;SDS011;17580;50.850;4.504;2023-07-31T14:18:11;2.83;;;2.43;;
10191;SDS011;17580;50.850;4.504;2023-07-31T14:20:38;2.27;;;2.10;;
10191;SDS011;17580;50.850;4.504;2023-07-31T14:23:05;3.23;;;2.93;;
10191;SDS011;17580;50.850;4.504;2023-07-31T14:25:33;2.93;;;2.50;;
10191;SDS011;17580;50.850;4.504;2023-07-31T14:28:00;2.63;;;2.40;;
10191;SDS011;17580;50.850;4.504;2023-07-31T14:30:27;3.37;;;2.70;;
10191;SDS011;17580;50.850;4.504;2023-07-31T14:32:56;3.00;;;2.70;;
10191;SDS011;17580;50.850;4.504;2023-07-31T14:35:25;3.27;;;2.97;;
10191;SDS011;17580;50.850;4.504;2023-07-31T14:37:52;3.83;;;2.80;;
10191;SDS011;17580;50.850;4.504;2023-07-31T14:40:20;2.80;;;2.60;;
10191;SDS011;17580;50.850;4.504;2023-07-31T14:42:47;3.80;;;2.90;;
10191;SDS011;17580;50.850;4.504;2023-07-31T14:45:14;3.80;;;2.80;;
10191;SDS011;17580;50.850;4.504;2023-07-31T14:47:42;2.97;;;2.33;;
10191;SDS011;17580;50.850;4.504;2023-07-31T14:50:10;3.23;;;2.50;;
10191;SDS011;17580;50.850;4.504;2023-07-31T14:52:38;2.47;;;2.20;;
10191;SDS011;17580;50.850;4.504;2023-07-31T14:55:05;2.33;;;1.90;;
10191;SDS011;17580;50.850;4.504;2023-07-31T14:57:33;2.47;;;2.27;;